Ocean Springs, MS (39565)

8:13 AM CDT on July 01, 2015 (GMT -0500)
BoezPlace | | Change Station
CLOSE
Current Station
Personal Weather Station
Location: Vancleave, MS
Elevation: 125 ft
Nearby Weather Stations

Elev 125 ft 30.62 °N, 88.71 °W | Updated 36 seconds ago

Mostly Cloudy
Mostly Cloudy
76.0 °F
Feels Like 76 °F
N
0.0
Wind Variable Wind from SSE

Today
High -- | Low -- °F
--% Chance of Precip.
Yesterday
High -- | Low -- °F
Precip. -- in
5:56 AM 8:01 PM
Full, 100% visible
Pressure 30.11 in
Visibility 10.0 miles
Clouds Clear
Heat Index 76 °F
Dew Point 74 °F
Humidity 92%
Rainfall 0.00 in
Snow Depth Not available.
UV 2 out of 12
Pollen 1.10 out of 12
Air Quality Not available.
Flu Activity Not available.
METAR KPQL 011253Z 00000KT 10SM CLR 25/23 A3010 RMK AO2 SLP194 T02500228

More Conditions Fewer Conditions

Pressure 30.11 in
Visibility 10.0 miles
Clouds Clear
Heat Index 76 °F
Dew Point 74 °F
Humidity 92%
Rainfall 0.00 in
Snow Depth Not available.
UV 2 out of 12
Pollen 1.10 out of 12
Air Quality Not available.
Flu Activity Not available.
METAR KPQL 011253Z 00000KT 10SM CLR 25/23 A3010 RMK AO2 SLP194 T02500228

More Conditions Fewer Conditions

10-Day Weather Forecast

×

Almanac

Astronomy

Jul. 01, 2015 Rise Set
Actual Time
Civil Twilight
Nautical Twilight
Astronomical Twilight
Moon
Length of Visible Light
Length of Day
Tomorrow will be .
, % of the Moon is Illuminated

Today's Extremes

State Highs State Lows

Community

WunderPhotos

Upload Photos

1,834,188 photos uploaded!

WunderBlogs® & News

Nearby

Air Quality

  Air Quality AQ Index Pollutant
Not available.

Snow Depth

Station Depth Elevation

Earthquake Activity

City Distance Mag. Time & Date
Minimum magnitude displayed is 2.5.

Coastal Water Temperatures

Place Temperature

Stations

Nearby Weather Stations

Station Location Temp. Windchill Dew Point Humidity Wind Precip. Elev Updated Type